Latest Coastal Weather Observations for Mackay

IDQ60701

Issued at 4:52 am EST Tuesday 24 April 2018 (issued every 10 minutes, with the page automatically refreshed every 10 minutes)

About coastal observations | Map of coastal stations | Coastal observations for QLD | Marine services | Other Formats
Station Details ID: 033119 Name: MACKAY M.O Lat: -21.12 Lon: 149.22 Height: 30.26 m
Data from the previous 72 hours. | See also: Recent months at Mackay
Date/Time
EST
Temp
°C
Wind Pressure Rain since
9am
mm
Weather Cloud Vis
km
Sea
Height
m
Swell
Dir  Spd
kts
Gust
kts
hPa Trend Height
m
Period
s
Dir
24/04:30am 18.6 SW 7 9 1013.3 - 0.0 - - - - - - -
24/04:00am 18.7 SW 6 8 1013.2 - 0.0 - - - - - - -
24/03:30am 18.9 SW 7 9 1013.1 - 0.0 - - - - - - -
24/03:00am 18.9 SW 7 9 1013.1 - 0.0 - - - - - - -
24/02:30am 19.0 SW 7 9 1013.1 - 0.0 - - - - - - -
24/02:00am 19.1 SW 7 8 1013.3 - 0.0 - - - - - - -
24/01:30am 19.0 SW 7 8 1013.5 - 0.0 - - - - - - -
24/01:00am 19.3 SW 6 7 1013.9 - 0.0 - - - - - - -
24/12:30am 19.5 SW 7 8 1014.1 - 0.0 - - - - - - -
24/12:00am 19.8 SW 7 9 1014.2 - 0.0 - - - - - - -
 
Date/Time
EST
Temp
°C
Wind Pressure Rain since
9am
mm
Weather Cloud Vis
km
Sea
Height
m
Swell
Dir  Spd
kts
Gust
kts
hPa Trend Height
m
Period
s
Dir
23/11:30pm 20.1 SW 7 8 1014.4 - 0.0 - - - - - - -
23/11:00pm 20.5 SW 7 8 1014.6 - 0.0 - - - - - - -
23/10:30pm 21.0 SW 6 7 1014.9 - 0.0 - - - - - - -
23/10:00pm 22.3 SSW 5 6 1015.0 - 0.0 - - - - - - -
23/09:30pm 23.2 SSE 5 8 1015.0 - 0.0 - - - - - - -
23/09:00pm 23.7 SE 6 9 1015.1 F 0.0 - - - - - - -
23/08:30pm 23.7 SE 6 9 1015.1 - 0.0 - - - - - - -
23/08:00pm 23.8 SE 6 10 1014.8 - 0.0 - - - - - - -
23/07:30pm 23.9 ESE 5 8 1014.5 - 0.0 - - - - - - -
23/07:00pm 23.9 ESE 6 10 1014.0 - 0.0 - - - - - - -
23/06:30pm 23.9 ESE 7 11 1013.8 - 0.0 - - - - - - -
23/06:00pm 24.2 ESE 6 11 1013.6 R 0.0 - - - - - - -
23/05:30pm 24.4 E 7 11 1013.3 - 0.0 - - - - - - -
23/05:00pm 24.5 E 7 11 1013.0 - 0.0 - - - - - - -
23/04:30pm 24.9 ESE 7 11 1012.7 - 0.0 - - - - - - -
23/04:00pm 25.3 ESE 7 12 1012.5 - 0.0 - - - - - - -
23/03:30pm 25.4 ESE 8 13 1012.4 - 0.0 - - - - - - -
23/03:00pm 25.6 SE 9 14 1012.4 R 0.0 - - - - - - -
23/02:30pm 25.6 SE 10 17 1012.3 - 0.0 - - - - - - -
23/02:00pm 25.8 SE 10 16 1012.7 - 0.0 - - - - - - -
23/01:30pm 25.9 SE 10 15 1012.9 - 0.0 - - - - - - -
23/01:00pm 25.9 SE 10 15 1013.3 - 0.0 - - - - - - -
23/12:30pm 25.9 SE 9 14 1013.7 - 0.0 - - - - - - -
23/12:00pm 25.9 SE 10 15 1014.0 F 0.0 - - - - - - -
23/11:30am 25.6 SSE 11 17 1014.5 - 0.0 - Partly cloudy - - - - -
23/11:00am 25.5 SSE 12 19 1014.8 - 0.0 - Partly cloudy - - - - -
23/10:30am 25.4 SSE 13 19 1015.1 - 0.0 - Partly cloudy - - - - -
23/10:00am 25.2 S 13 19 1015.2 - 0.0 - - - - - - -
23/09:30am 24.8 SSE 13 17 1015.4 - 0.0 - - - - - - -
23/09:00am 24.4 S 13 21 1015.4 S 0.0 - Mostly clear - - - - -
23/08:30am 23.9 S 11 15 1015.1 - 0.0 - - - - - - -
23/08:00am 22.7 SSW 7 11 1015.0 - 0.0 - - - - - - -
23/07:30am 20.9 SSW 7 9 1014.7 - 0.0 - - - - - - -
23/07:00am 19.9 SSW 7 9 1014.3 - 0.0 - - - - - - -
23/06:30am 19.7 SW 7 9 1014.0 - 0.0 - - - - - - -
23/06:00am 19.8 SW 6 8 1013.7 F 0.0 - Mostly clear - - - - -
23/05:30am 20.0 SW 7 9 1013.6 - 0.0 - Partly cloudy - - - - -
23/05:00am 20.0 SW 7 9 1013.5 - 0.0 - Partly cloudy - - - - -
23/04:30am 19.8 SW 7 9 1013.4 - 0.0 - Partly cloudy - - - - -
23/04:00am 19.9 SW 8 11 1013.4 - 0.0 - Partly cloudy - - - - -
23/03:30am 19.9 SW 7 9 1013.4 - 0.0 - Partly cloudy - - - - -
23/03:00am 19.9 SW 7 9 1013.4 - 0.0 - Partly cloudy - - - - -
23/02:30am 20.2 SW 7 8 1013.6 - 0.0 - Partly cloudy - - - - -
23/02:00am 20.3 SW 7 8 1013.8 - 0.0 - Partly cloudy - - - - -
23/01:30am 20.3 SW 6 8 1014.1 - 0.0 - Partly cloudy - - - - -
23/01:00am 20.6 SW 5 7 1014.4 - 0.0 - Partly cloudy - - - - -
23/12:30am 21.0 SW 5 7 1014.7 - 0.0 - Partly cloudy - - - - -
23/12:00am 21.4 SW 5 7 1014.8 - 0.0 - Partly cloudy - - - - -
 
Date/Time
EST
Temp
°C
Wind Pressure Rain since
9am
mm
Weather Cloud Vis
km
Sea
Height
m
Swell
Dir  Spd
kts
Gust
kts
hPa Trend Height
m
Period
s
Dir
22/11:30pm 22.0 SSW 5 6 1014.9 - 0.0 - Cloudy - - - - -
22/11:00pm 22.3 SSW 5 7 1015.1 - 0.0 - Partly cloudy - - - - -
22/10:30pm 23.6 SSE 6 10 1015.1 - 0.0 - Partly cloudy - - - - -
22/10:00pm 23.6 SE 6 9 1015.2 - 0.0 - Partly cloudy - - - - -
22/09:30pm 23.7 SE 7 12 1015.4 - 0.0 - Partly cloudy - - - - -
22/09:00pm 23.8 SE 9 13 1015.3 F 0.0 - Mostly cloudy - - - - -
22/08:30pm 23.9 SSE 8 13 1015.1 - 0.0 - Partly cloudy - - - - -
22/08:00pm 23.9 SE 9 14 1014.8 - 0.0 - Partly cloudy - - - - -
22/07:30pm 23.8 SE 8 15 1014.6 - 0.0 - Partly cloudy - - - - -
22/07:00pm 24.1 SE 10 16 1014.2 - 0.0 - - - - - - -
22/06:30pm 24.1 SE 10 16 1014.0 - 0.0 - Partly cloudy - - - - -
22/06:00pm 24.0 ESE 9 15 1013.8 R 0.0 - Mostly clear - - - - -
22/05:30pm 24.1 SE 9 14 1013.6 - 0.0 - Partly cloudy - - - - -
22/05:00pm 24.2 ESE 10 16 1013.5 - 0.0 - Partly cloudy - - - - -
22/04:30pm 24.5 SE 10 15 1013.3 - 0.0 - Partly cloudy - - - - -
22/04:00pm 25.3 SE 10 15 1013.1 - 0.0 - - - - - - -
22/03:30pm 25.5 SE 11 17 1013.1 - 0.0 - - - - - - -
22/03:00pm 25.7 SSE 10 17 1012.9 R 0.0 - - - - - - -
22/02:30pm 25.8 SSE 10 17 1012.9 - 0.0 - - - - - - -
22/02:00pm 25.9 SSE 11 17 1013.0 - 0.0 - - - - - - -
22/01:30pm 26.1 SSE 11 17 1013.3 - 0.0 - - - - - - -
22/01:00pm 25.8 SSE 11 19 1013.6 - 0.0 - - - - - - -
22/12:30pm 25.6 SSE 12 19 1014.1 - 0.0 - - - - - - -
22/12:00pm 25.7 SSE 12 18 1014.5 F 0.0 - Mostly clear - - - - -
22/11:30am 25.7 SSE 11 17 1014.8 - 0.0 - - - - - - -
22/11:00am 25.5 SSE 13 19 1015.3 - 0.0 - Partly cloudy - - - - -
22/10:30am 25.0 SSE 13 20 1015.5 - 0.0 - Partly cloudy - - - - -
22/10:00am 24.7 S 12 17 1015.7 - 0.0 - Partly cloudy - - - - -
22/09:40am 24.7 SSE 12 18 1015.8 - 0.0 - Partly cloudy - - - - -
22/09:30am 24.7 S 13 17 1015.8 - 0.0 - Partly cloudy - - - - -
22/09:24am 24.3 S 12 17 1015.8 - 0.0 - Partly cloudy - - - - -
22/09:00am 24.0 S 12 19 1015.6 F 3.0 - Mostly clear - - - - -
22/08:30am 23.5 S 11 17 1015.5 - 3.0 - - - - - - -
22/08:00am 22.6 S 10 15 1015.4 - 3.0 - - - - - - -
22/07:30am 21.4 SSW 8 11 1015.1 - 3.0 - Partly cloudy - - - - -
22/07:00am 20.7 SW 7 10 1014.9 - 3.0 - - - - - - -
22/06:30am 21.2 S 9 15 1014.6 - 3.0 - Partly cloudy - - - - -
22/06:00am 20.9 SSW 5 9 1014.3 R 3.0 Recent precip. Cloudy - - - - -
22/05:58am 21.1 SSW 5 9 1014.3 - 3.0 - Partly cloudy - - - - -
22/05:48am 20.8 S 4 6 1014.2 - 3.0 - Partly cloudy - - - - -
22/05:30am 21.2 S 8 12 1014.2 - 1.4 - Partly cloudy - - - - -
22/05:00am 20.8 SSE 6 10 1013.7 - 1.4 - Partly cloudy - - - - -
22/04:30am 22.3 S 9 14 1013.8 - 0.2 - Partly cloudy - - - - -
22/04:00am 22.1 SSW 6 8 1013.5 - 0.0 - Partly cloudy - - - - -
22/03:30am 22.3 S 7 10 1013.6 - 0.0 - Partly cloudy - - - - -
22/03:00am 22.7 S 7 11 1013.8 - 0.0 - Cloudy - - - - -
22/02:30am 23.8 SE 7 11 1013.9 - 0.0 - Partly cloudy - - - - -
22/02:00am 24.0 SSE 9 13 1014.0 - 0.0 - Partly cloudy - - - - -
22/01:30am 24.0 SE 8 11 1014.2 - 0.0 - Partly cloudy - - - - -
22/01:00am 24.1 SE 6 11 1014.5 - 0.0 - Partly cloudy - - - - -
22/12:30am 24.2 SE 9 14 1014.7 - 0.0 - Partly cloudy - - - - -
22/12:00am 24.0 SE 8 13 1014.8 - 0.0 - - - - - - -
 
Date/Time
EST
Temp
°C
Wind Pressure Rain since
9am
mm
Weather Cloud Vis
km
Sea
Height
m
Swell
Dir  Spd
kts
Gust
kts
hPa Trend Height
m
Period
s
Dir
21/11:30pm 24.0 SE 8 12 1014.9 - 0.0 - - - - - - -
21/11:00pm 24.1 SE 7 12 1015.0 - 0.0 - Partly cloudy - - - - -
21/10:30pm 24.2 SE 7 12 1015.0 - 0.0 - Partly cloudy - - - - -
21/10:00pm 24.1 SE 6 11 1015.1 - 0.0 - Partly cloudy - - - - -
21/09:30pm 24.4 SE 7 11 1015.2 - 0.0 - Partly cloudy - - - - -
21/09:00pm 24.3 SE 6 9 1015.1 F 0.0 - Partly cloudy - - - - -
21/08:30pm 24.1 SE 6 9 1015.0 - 0.0 - Partly cloudy - - - - -
21/08:00pm 24.4 SE 7 11 1014.7 - 0.0 - - - - - - -
21/07:30pm 24.2 SE 7 12 1014.3 - 0.0 - Partly cloudy - - - - -
21/07:00pm 24.2 SE 7 13 1014.1 - 0.0 - - - - - - -
21/06:30pm 24.2 SE 9 15 1013.9 - 0.0 - - - - - - -
21/06:00pm 24.2 SE 8 12 1013.6 F 0.0 - - - - - - -
21/05:30pm 24.5 SE 7 10 1013.2 - 0.0 - - - - - - -
21/05:00pm 24.9 SE 7 11 1012.9 - 0.0 - - - - - - -
21/04:30pm 25.3 SE 7 11 1012.7 - 0.0 - - - - - - -
21/04:00pm 25.9 SE 8 12 1012.8 - 0.0 - - - - - - -
21/03:30pm 26.4 SE 7 12 1012.9 - 0.0 - - - - - - -
21/03:00pm 26.6 SSE 7 11 1013.0 R 0.0 - - - - - - -
21/02:30pm 26.2 SE 8 13 1013.1 - 0.0 - - - - - - -
21/02:00pm 26.6 SSE 10 16 1013.3 - 0.0 - - - - - - -
21/01:30pm 26.6 SSE 9 16 1013.6 - 0.0 - - - - - - -
21/01:00pm 27.1 SSE 9 15 1013.8 - 0.0 - - - - - - -
21/12:30pm 26.9 SE 10 15 1014.0 - 0.0 - - - - - - -
21/12:00pm 26.9 SE 9 14 1014.4 F 0.0 - - - - - - -
21/11:30am 27.0 SSE 9 14 1015.0 - 0.0 - Partly cloudy - - - - -
21/11:00am 25.8 SSE 10 15 1015.4 - 0.0 - Partly cloudy - - - - -
21/10:30am 26.5 SSE 10 15 1015.7 - 0.0 - Partly cloudy - - - - -
21/10:00am 26.8 S 8 13 1015.9 - 0.0 - Partly cloudy - - - - -
21/09:30am 25.7 S 9 15 1015.9 - 0.0 - Partly cloudy - - - - -
21/09:00am 25.1 S 7 11 1015.7 F 0.2 - Partly cloudy - - - - -
21/08:30am 24.2 SSW 7 10 1015.6 - 0.2 - Partly cloudy - - - - -
21/08:00am 22.9 SSW 7 9 1015.4 - 0.2 - Partly cloudy - - - - -
21/07:30am 21.6 SW 5 7 1015.2 - 0.2 - Partly cloudy - - - - -
21/07:00am 20.4 SW 7 8 1015.1 - 0.2 - - - - - - -
21/06:30am 20.1 SW 6 8 1014.8 - 0.2 - Partly cloudy - - - - -
21/06:00am 20.4 SW 7 8 1014.3 F 0.2 - Mostly clear - - - - -
21/05:30am 20.5 SW 6 7 1014.1 - 0.2 - Partly cloudy - - - - -
21/05:00am 20.6 SW 6 8 1014.0 - 0.2 - - - - - - -

Other Formats:

Comma delimited format used in spreadsheet applications
http://www.bom.gov.au/fwo/IDQ60701/IDQ60701.94367.axf

JavaScript Object Notation format (JSON) in row-major order
http://www.bom.gov.au/fwo/IDQ60701/IDQ60701.94367.json